Time;durP1;ratioP1;P1;durP2;ratioP2;P2;SDS_P1;SDS_P2;PMS_P1;PMS_P2;Temp;Humidity;BMP_temperature;BMP_pressure;BME280_temperature;BME280_humidity;BME280_pressure;Samples;Min_cycle;Max_cycle;Signal;HPM_P1;HPM_P2
2024/02/13 00:00:48;;;;;;;7.95;4.30;;;7.00;99.90;;;;;;5052434;28;20676;-74
2024/02/13 00:03:14;;;;;;;8.85;5.25;;;7.00;99.90;;;;;;5051575;28;20180;-74
2024/02/13 00:05:40;;;;;;;7.00;5.17;;;7.00;99.90;;;;;;5052572;28;20179;-73
2024/02/13 00:08:06;;;;;;;4.97;3.70;;;7.00;99.90;;;;;;5035990;28;21165;-74
2024/02/13 00:10:33;;;;;;;5.38;4.20;;;6.90;99.90;;;;;;5064775;28;20577;-74
2024/02/13 00:12:59;;;;;;;7.45;5.10;;;7.00;99.90;;;;;;5067027;28;20176;-74
2024/02/13 00:15:25;;;;;;;6.90;5.23;;;6.90;99.90;;;;;;5070127;28;20568;-74
2024/02/13 00:17:51;;;;;;;8.18;5.50;;;6.90;99.90;;;;;;5035602;28;20194;-74
2024/02/13 00:20:17;;;;;;;6.90;4.97;;;6.90;99.90;;;;;;5048547;28;20184;-74
2024/02/13 00:22:49;;;;;;;8.30;5.45;;;6.90;99.90;;;;;;5047105;28;20173;-74
2024/02/13 00:25:17;;;;;;;9.50;5.68;;;6.90;99.90;;;;;;5043987;28;20180;-74
2024/02/13 00:27:43;;;;;;;10.48;5.40;;;6.90;99.90;;;;;;5062937;28;20665;-75
2024/02/13 00:30:09;;;;;;;8.87;5.10;;;6.80;99.90;;;;;;5067770;28;20192;-74
2024/02/13 00:32:38;;;;;;;10.95;5.10;;;6.80;99.90;;;;;;5069762;28;20644;-74
2024/02/13 00:35:05;;;;;;;5.20;4.53;;;6.80;99.90;;;;;;5069469;28;20290;-75
2024/02/13 00:37:31;;;;;;;7.30;5.10;;;6.80;99.90;;;;;;5069672;28;20267;-75
2024/02/13 00:39:57;;;;;;;7.33;5.27;;;6.80;99.90;;;;;;5051632;28;20279;-74
2024/02/13 00:42:23;;;;;;;5.55;4.20;;;6.70;99.90;;;;;;5051112;28;20982;-74
2024/02/13 00:44:49;;;;;;;6.67;4.17;;;6.70;99.90;;;;;;5051765;28;20175;-74
2024/02/13 00:47:15;;;;;;;6.60;4.25;;;6.70;99.90;;;;;;5043701;28;20275;-74
2024/02/13 00:49:40;;;;;;;5.80;4.10;;;6.70;99.90;;;;;;5055163;28;20278;-74
2024/02/13 00:52:07;;;;;;;9.33;4.07;;;6.70;99.90;;;;;;5054747;28;20657;-75
2024/02/13 00:54:32;;;;;;;9.65;5.07;;;6.60;99.90;;;;;;5073393;28;20568;-75
2024/02/13 00:56:58;;;;;;;9.30;5.10;;;6.60;99.90;;;;;;5049477;28;20184;-74
2024/02/13 00:59:25;;;;;;;6.93;4.30;;;6.60;99.90;;;;;;5051213;28;20670;-74
2024/02/13 01:01:51;;;;;;;6.28;4.57;;;6.60;99.90;;;;;;5034944;28;20558;-75
2024/02/13 01:04:16;;;;;;;6.97;5.10;;;6.60;99.90;;;;;;5052000;28;20196;-74
2024/02/13 01:06:42;;;;;;;5.60;4.07;;;6.50;99.90;;;;;;5055097;28;20176;-74
2024/02/13 01:09:08;;;;;;;5.57;4.90;;;6.50;99.90;;;;;;5046547;28;20320;-74
2024/02/13 01:11:35;;;;;;;6.10;4.43;;;6.50;99.90;;;;;;5053023;28;20634;-74
2024/02/13 01:14:04;;;;;;;7.40;4.63;;;6.50;99.90;;;;;;5035211;28;20180;-74
2024/02/13 01:16:30;;;;;;;10.95;5.25;;;6.40;99.90;;;;;;5050652;28;20204;-74
2024/02/13 01:18:57;;;;;;;8.50;4.40;;;6.40;99.90;;;;;;5051306;28;20693;-74
2024/02/13 01:21:22;;;;;;;7.80;5.05;;;6.40;99.90;;;;;;5054467;28;20583;-74
2024/02/13 01:23:49;;;;;;;7.27;5.30;;;6.40;99.90;;;;;;5072938;28;20175;-74
2024/02/13 01:26:18;;;;;;;6.40;4.72;;;6.40;99.90;;;;;;5037839;28;20229;-74
2024/02/13 01:28:45;;;;;;;6.60;4.47;;;6.40;99.90;;;;;;5069629;28;20204;-74
2024/02/13 01:31:11;;;;;;;6.82;4.90;;;6.30;99.90;;;;;;5072127;28;20176;-74
2024/02/13 01:33:36;;;;;;;7.90;4.40;;;6.30;99.90;;;;;;5054846;28;20176;-74
2024/02/13 01:36:04;;;;;;;9.70;5.20;;;6.30;99.90;;;;;;5067640;28;20378;-74
2024/02/13 01:38:30;;;;;;;8.82;5.60;;;6.30;99.90;;;;;;5072191;28;20211;-74
2024/02/13 01:40:56;;;;;;;5.10;4.00;;;6.30;99.90;;;;;;5053944;28;20549;-74
2024/02/13 01:43:25;;;;;;;6.47;5.00;;;6.30;99.90;;;;;;5054526;28;20255;-74
2024/02/13 01:45:55;;;;;;;7.80;5.18;;;6.30;99.90;;;;;;5054487;28;20592;-74
2024/02/13 01:48:25;;;;;;;5.25;3.58;;;6.30;99.90;;;;;;5072032;28;20526;-74
2024/02/13 01:50:56;;;;;;;8.05;4.93;;;6.30;99.90;;;;;;5054006;28;20184;-74
2024/02/13 01:53:23;;;;;;;6.15;3.60;;;6.20;99.90;;;;;;5072390;28;20546;-74
2024/02/13 01:55:50;;;;;;;6.90;4.53;;;6.20;99.90;;;;;;5054195;28;20238;-74
2024/02/13 01:58:19;;;;;;;6.15;4.10;;;6.20;99.90;;;;;;5054345;28;20263;-74
2024/02/13 02:00:47;;;;;;;7.78;4.50;;;6.20;99.90;;;;;;5071168;28;20180;-74
2024/02/13 02:03:15;;;;;;;5.32;3.03;;;6.20;99.90;;;;;;5035902;28;20172;-74
2024/02/13 02:05:41;;;;;;;7.30;4.13;;;6.20;99.90;;;;;;5066265;28;20192;-74
2024/02/13 02:08:08;;;;;;;8.37;3.80;;;6.20;99.90;;;;;;5053964;28;20244;-74
2024/02/13 02:10:34;;;;;;;7.30;4.03;;;6.20;99.90;;;;;;5043145;28;20223;-74
2024/02/13 02:13:01;;;;;;;6.80;3.70;;;6.10;99.90;;;;;;5042298;28;20216;-74
2024/02/13 02:15:28;;;;;;;5.63;3.72;;;6.10;99.90;;;;;;5071849;28;20283;-74
2024/02/13 02:17:54;;;;;;;5.32;3.70;;;6.10;99.90;;;;;;5071738;28;20195;-74
2024/02/13 02:20:24;;;;;;;5.03;3.15;;;6.10;99.90;;;;;;5052812;28;20200;-74
2024/02/13 02:22:50;;;;;;;5.28;3.65;;;6.10;99.90;;;;;;5071719;28;20179;-74
2024/02/13 02:25:21;;;;;;;6.15;3.35;;;6.10;99.90;;;;;;5036944;28;20187;-74
2024/02/13 02:27:48;;;;;;;6.70;3.70;;;6.10;99.90;;;;;;5053658;28;20288;-74
2024/02/13 02:30:14;;;;;;;7.57;4.10;;;6.10;99.90;;;;;;5053161;28;20196;-74
2024/02/13 02:32:40;;;;;;;5.13;4.13;;;6.10;99.90;;;;;;5037270;28;20183;-73
2024/02/13 02:35:07;;;;;;;4.45;4.00;;;6.10;99.90;;;;;;5053434;28;20222;-74
2024/02/13 02:37:39;;;;;;;6.78;3.78;;;6.10;99.90;;;;;;5020529;28;20165;-74
2024/02/13 02:40:05;;;;;;;7.90;3.78;;;6.10;99.90;;;;;;5053580;28;20223;-73
2024/02/13 02:42:31;;;;;;;4.00;3.50;;;6.10;99.90;;;;;;5071652;28;20176;-74
2024/02/13 02:44:58;;;;;;;8.17;3.47;;;6.10;99.90;;;;;;5053547;28;20549;-74
2024/02/13 02:47:24;;;;;;;3.60;3.15;;;6.10;99.90;;;;;;5053219;28;20635;-74
2024/02/13 02:49:50;;;;;;;3.40;3.10;;;6.10;99.90;;;;;;5053322;28;20188;-73
2024/02/13 02:52:17;;;;;;;5.70;3.53;;;6.10;99.90;;;;;;5052763;28;20252;-74
2024/02/13 02:54:46;;;;;;;7.68;3.75;;;6.10;99.90;;;;;;5071289;28;20187;-75
2024/02/13 02:57:12;;;;;;;8.43;3.65;;;6.20;99.90;;;;;;5053052;28;20793;-74
2024/02/13 02:59:38;;;;;;;6.17;3.60;;;6.20;99.90;;;;;;5053046;28;20215;-74
2024/02/13 03:02:04;;;;;;;6.70;3.87;;;6.20;99.90;;;;;;5070487;28;20172;-73
2024/02/13 03:04:30;;;;;;;6.00;3.95;;;6.30;99.90;;;;;;5053209;28;20187;-74
2024/02/13 03:06:55;;;;;;;7.47;3.93;;;6.30;99.90;;;;;;5036184;28;20180;-74
2024/02/13 03:09:22;;;;;;;4.67;3.80;;;6.30;99.90;;;;;;5070548;28;20621;-75
2024/02/13 03:11:48;;;;;;;5.28;3.75;;;6.30;99.90;;;;;;5035142;28;20185;-74
2024/02/13 03:14:14;;;;;;;5.55;4.47;;;6.40;99.90;;;;;;5070957;28;20322;-74
2024/02/13 03:16:40;;;;;;;6.10;4.23;;;6.40;99.90;;;;;;5070867;28;20242;-74
2024/02/13 03:19:06;;;;;;;5.90;4.05;;;6.40;99.90;;;;;;5052541;28;20189;-74
2024/02/13 03:21:32;;;;;;;7.13;4.90;;;6.40;99.90;;;;;;5063845;28;20551;-74
2024/02/13 03:23:58;;;;;;;7.30;5.03;;;6.40;99.90;;;;;;5040524;28;20574;-74
2024/02/13 03:26:24;;;;;;;7.13;5.00;;;6.40;99.90;;;;;;5051329;28;20189;-74
2024/02/13 03:28:50;;;;;;;8.97;5.37;;;6.30;99.90;;;;;;5050783;28;20681;-74
2024/02/13 03:31:16;;;;;;;6.90;5.00;;;6.30;99.90;;;;;;5049998;28;20586;-74
2024/02/13 03:33:44;;;;;;;10.00;4.85;;;6.30;99.90;;;;;;5046645;28;20187;-75
2024/02/13 03:36:16;;;;;;;8.23;5.05;;;6.30;99.90;;;;;;5052318;28;20611;-75
2024/02/13 03:38:48;;;;;;;7.57;5.25;;;6.30;99.90;;;;;;5070632;28;20235;-75
2024/02/13 03:41:13;;;;;;;11.02;5.03;;;6.30;99.90;;;;;;5069920;28;20244;-75
2024/02/13 03:43:43;;;;;;;7.63;5.80;;;6.30;99.90;;;;;;5052866;28;20192;-75
2024/02/13 03:46:09;;;;;;;6.05;4.93;;;6.30;99.90;;;;;;5061737;28;20583;-75
2024/02/13 03:48:35;;;;;;;8.23;5.50;;;6.30;99.90;;;;;;5059921;28;20184;-75
2024/02/13 03:51:01;;;;;;;7.22;5.55;;;6.30;99.90;;;;;;5047855;28;20164;-75
2024/02/13 03:53:27;;;;;;;9.27;5.80;;;6.40;99.90;;;;;;5070505;28;20665;-75
2024/02/13 03:55:52;;;;;;;7.67;5.83;;;6.40;99.90;;;;;;5052414;28;20630;-75
2024/02/13 03:58:18;;;;;;;7.23;4.90;;;6.40;99.90;;;;;;5070438;28;20160;-75
2024/02/13 04:00:44;;;;;;;8.60;5.67;;;6.50;99.90;;;;;;5046927;28;20389;-73
2024/02/13 04:03:11;;;;;;;9.00;6.10;;;6.50;99.90;;;;;;5048866;28;20581;-72
2024/02/13 04:05:39;;;;;;;7.15;4.95;;;6.50;99.90;;;;;;5052252;28;20212;-72
2024/02/13 04:08:08;;;;;;;6.25;4.95;;;6.50;99.90;;;;;;5070074;28;20176;-72
2024/02/13 04:10:36;;;;;;;6.05;4.85;;;6.50;99.90;;;;;;5051810;28;20192;-72
2024/02/13 04:13:06;;;;;;;8.13;4.55;;;6.50;99.90;;;;;;5070460;28;20538;-72
2024/02/13 04:15:31;;;;;;;5.38;4.88;;;6.50;99.90;;;;;;5043414;28;20668;-73
2024/02/13 04:17:57;;;;;;;8.20;5.80;;;6.50;99.90;;;;;;5050183;28;20169;-73
2024/02/13 04:20:23;;;;;;;6.27;4.97;;;6.50;99.90;;;;;;5067960;28;20196;-73
2024/02/13 04:22:48;;;;;;;6.37;5.60;;;6.50;99.90;;;;;;5071621;28;20238;-73
2024/02/13 04:25:17;;;;;;;6.70;5.20;;;6.50;99.90;;;;;;5074113;28;20222;-73
2024/02/13 04:27:44;;;;;;;6.97;5.28;;;6.40;99.90;;;;;;5056094;28;20230;-74
2024/02/13 04:30:13;;;;;;;7.45;5.85;;;6.40;99.90;;;;;;5055408;28;20206;-73
2024/02/13 04:32:40;;;;;;;6.20;4.90;;;6.40;99.90;;;;;;5073908;28;20179;-73
2024/02/13 04:35:09;;;;;;;7.38;4.60;;;6.40;99.90;;;;;;5055893;28;20204;-73
2024/02/13 04:37:35;;;;;;;7.57;5.07;;;6.40;99.90;;;;;;5073766;28;20233;-73
2024/02/13 04:40:01;;;;;;;8.43;4.97;;;6.30;99.90;;;;;;5055921;28;20192;-73
2024/02/13 04:42:34;;;;;;;7.60;5.07;;;6.30;99.90;;;;;;5073379;28;20176;-73
2024/02/13 04:45:00;;;;;;;7.95;5.72;;;6.30;99.90;;;;;;5073965;28;20647;-73
2024/02/13 04:47:28;;;;;;;7.90;5.15;;;6.30;99.90;;;;;;5073634;28;20190;-73
2024/02/13 04:49:58;;;;;;;8.95;5.45;;;6.20;99.90;;;;;;5063070;28;20235;-74
2024/02/13 04:52:24;;;;;;;7.28;4.80;;;6.30;99.90;;;;;;5061812;28;20275;-73
2024/02/13 04:54:59;;;;;;;6.00;4.53;;;6.20;99.90;;;;;;5067011;28;20268;-73
2024/02/13 04:57:26;;;;;;;5.88;4.57;;;6.20;99.90;;;;;;5040306;28;20594;-73
2024/02/13 04:59:52;;;;;;;6.32;5.10;;;6.20;99.90;;;;;;5051325;28;20211;-73
2024/02/13 05:02:22;;;;;;;6.05;4.70;;;6.10;99.90;;;;;;5069058;28;20207;-73
2024/02/13 05:07:32;;;;;;;7.18;3.72;;;6.10;99.90;;;;;;5044999;28;20172;-73
2024/02/13 05:09:59;;;;;;;6.78;4.00;;;6.10;99.90;;;;;;5042976;28;20221;-74
2024/02/13 05:12:25;;;;;;;6.78;4.70;;;6.10;99.90;;;;;;5070741;28;20181;-73
2024/02/13 05:14:55;;;;;;;6.30;3.92;;;6.00;99.90;;;;;;5068475;28;20279;-73
2024/02/13 05:17:24;;;;;;;4.35;3.40;;;6.00;99.90;;;;;;5069998;28;20263;-73
2024/02/13 05:19:50;;;;;;;5.18;4.05;;;6.00;99.90;;;;;;5024440;28;20719;-73
2024/02/13 05:22:16;;;;;;;6.22;3.88;;;6.00;99.90;;;;;;5054961;28;20173;-73
2024/02/13 05:24:43;;;;;;;5.20;3.80;;;6.00;99.90;;;;;;5055061;28;20168;-72
2024/02/13 05:27:09;;;;;;;4.50;3.08;;;6.00;99.90;;;;;;5072835;28;20168;-73
2024/02/13 05:29:36;;;;;;;4.82;2.75;;;6.00;99.90;;;;;;5075564;28;20296;-73
2024/02/13 05:32:05;;;;;;;5.80;3.10;;;6.00;99.90;;;;;;5074699;28;20192;-73
2024/02/13 05:34:32;;;;;;;3.20;2.13;;;5.90;99.90;;;;;;5073142;28;20199;-73
2024/02/13 05:36:58;;;;;;;4.60;2.35;;;5.90;99.90;;;;;;5060824;28;20926;-74
2024/02/13 05:39:28;;;;;;;3.67;2.80;;;5.90;99.90;;;;;;5062871;28;20197;-74
2024/02/13 05:41:54;;;;;;;4.60;2.80;;;5.90;99.90;;;;;;5048892;28;20177;-74
2024/02/13 05:44:21;;;;;;;5.22;2.83;;;5.90;99.90;;;;;;5051355;28;20222;-73
2024/02/13 05:46:48;;;;;;;2.78;2.00;;;5.90;99.90;;;;;;5064316;28;20181;-73
2024/02/13 05:49:13;;;;;;;2.72;1.98;;;5.90;99.90;;;;;;5067770;28;20258;-74
2024/02/13 05:51:39;;;;;;;2.70;1.97;;;5.90;99.90;;;;;;5055082;28;20545;-74
2024/02/13 05:54:05;;;;;;;2.83;2.03;;;5.80;99.90;;;;;;5041814;28;20564;-73
2024/02/13 05:56:35;;;;;;;2.90;1.83;;;5.80;99.90;;;;;;5054278;28;20188;-73
2024/02/13 05:59:03;;;;;;;6.43;1.73;;;5.80;99.90;;;;;;5054175;28;20733;-74
2024/02/13 06:01:29;;;;;;;2.45;1.77;;;5.80;99.90;;;;;;5053424;28;20195;-74
2024/02/13 06:03:57;;;;;;;3.17;1.95;;;5.80;99.90;;;;;;5045582;28;20184;-73
2024/02/13 06:06:24;;;;;;;2.35;1.83;;;5.80;99.90;;;;;;5025481;28;20203;-74
2024/02/13 06:08:53;;;;;;;1.98;1.30;;;5.80;99.90;;;;;;5071656;28;20242;-73
2024/02/13 06:11:19;;;;;;;4.07;1.90;;;5.70;99.90;;;;;;5053669;28;20168;-74
2024/02/13 06:13:45;;;;;;;3.47;1.92;;;5.70;99.90;;;;;;5037465;28;20233;-74
2024/02/13 06:16:14;;;;;;;2.50;1.70;;;5.70;99.90;;;;;;5065828;28;20165;-74
2024/02/13 06:18:40;;;;;;;3.60;1.70;;;5.70;99.90;;;;;;5063812;28;20180;-74
2024/02/13 06:21:05;;;;;;;3.70;1.20;;;5.70;99.90;;;;;;5055385;28;20168;-74
2024/02/13 06:23:31;;;;;;;3.60;1.50;;;5.70;99.90;;;;;;5050560;28;20683;-74
2024/02/13 06:25:58;;;;;;;1.80;1.50;;;5.70;99.90;;;;;;5050132;28;20207;-73
2024/02/13 06:28:23;;;;;;;4.60;1.60;;;5.70;99.90;;;;;;5058493;28;20246;-72
2024/02/13 06:30:49;;;;;;;3.87;1.87;;;5.70;99.90;;;;;;5054414;28;20176;-75
2024/02/13 06:33:15;;;;;;;3.30;1.93;;;5.70;99.90;;;;;;5045627;28;20203;-72
2024/02/13 06:35:41;;;;;;;3.10;2.00;;;5.70;99.90;;;;;;5072070;28;20176;-74
2024/02/13 06:38:07;;;;;;;3.00;1.70;;;5.70;99.90;;;;;;5071514;28;20633;-74
2024/02/13 06:40:33;;;;;;;2.60;1.50;;;5.70;99.90;;;;;;5040054;28;20619;-73
2024/02/13 06:42:58;;;;;;;3.03;2.17;;;5.70;99.90;;;;;;5054077;28;20169;-74
2024/02/13 06:45:27;;;;;;;2.60;1.20;;;5.70;99.90;;;;;;5067858;28;20211;-73
2024/02/13 06:47:53;;;;;;;2.70;1.60;;;5.80;99.90;;;;;;5060045;28;20177;-74
2024/02/13 06:50:19;;;;;;;4.00;1.83;;;5.70;99.90;;;;;;5049640;28;20554;-74
2024/02/13 06:52:51;;;;;;;4.13;1.93;;;5.80;99.90;;;;;;5053542;28;20582;-76
2024/02/13 06:55:19;;;;;;;6.38;2.13;;;5.80;99.90;;;;;;5021295;28;20250;-76
2024/02/13 06:57:45;;;;;;;4.57;2.20;;;5.80;99.90;;;;;;5039734;28;20554;-75
2024/02/13 07:00:13;;;;;;;7.18;2.22;;;5.80;99.90;;;;;;5042022;28;20201;-76
2024/02/13 07:02:40;;;;;;;5.55;2.03;;;5.80;99.90;;;;;;5059099;28;20185;-75
2024/02/13 07:05:08;;;;;;;3.65;2.20;;;5.80;99.90;;;;;;5042439;28;20192;-75
2024/02/13 07:07:34;;;;;;;2.83;1.77;;;5.90;99.90;;;;;;5041061;28;20249;-75
2024/02/13 07:10:00;;;;;;;3.70;1.95;;;5.90;99.90;;;;;;5022411;28;20193;-75
2024/02/13 07:12:27;;;;;;;4.30;2.13;;;5.90;99.90;;;;;;5018160;28;20169;-75
2024/02/13 07:14:52;;;;;;;6.93;2.00;;;5.90;99.90;;;;;;5052757;28;20634;-75
2024/02/13 07:17:18;;;;;;;12.40;2.87;;;6.00;99.90;;;;;;5020217;28;20592;-75
2024/02/13 07:19:45;;;;;;;7.60;2.50;;;6.00;99.90;;;;;;5027832;28;20335;-75
2024/02/13 07:22:10;;;;;;;6.68;2.17;;;6.10;99.90;;;;;;5029348;28;20201;-75
2024/02/13 07:24:37;;;;;;;3.00;1.90;;;6.10;99.90;;;;;;5051501;28;20748;-74
2024/02/13 07:27:04;;;;;;;2.58;1.45;;;6.20;99.90;;;;;;5056003;28;20204;-74
2024/02/13 07:29:31;;;;;;;3.90;1.88;;;6.20;99.90;;;;;;5033871;28;20195;-74
2024/02/13 07:31:57;;;;;;;6.00;1.50;;;6.30;99.90;;;;;;5070291;28;20859;-74
2024/02/13 07:34:23;;;;;;;4.45;1.83;;;6.40;99.90;;;;;;5052931;28;20184;-74
2024/02/13 07:36:49;;;;;;;4.47;1.50;;;6.40;99.90;;;;;;5053387;28;20503;-75
2024/02/13 07:39:15;;;;;;;5.50;1.73;;;6.50;99.90;;;;;;5071937;28;20237;-77
2024/02/13 07:41:43;;;;;;;4.60;1.83;;;6.60;99.90;;;;;;5053238;28;20918;-76
2024/02/13 07:44:15;;;;;;;2.80;1.92;;;6.70;99.90;;;;;;5030660;28;20173;-77
2024/02/13 07:46:41;;;;;;;7.13;1.70;;;6.70;99.90;;;;;;5036305;28;20212;-75
2024/02/13 07:49:08;;;;;;;3.00;1.47;;;6.80;99.90;;;;;;5070487;28;20230;-74
2024/02/13 07:51:37;;;;;;;2.67;1.30;;;6.80;99.90;;;;;;5036346;28;20258;-75
2024/02/13 07:54:04;;;;;;;6.35;1.70;;;6.90;99.90;;;;;;5029830;28;20267;-75
2024/02/13 07:56:30;;;;;;;2.90;1.50;;;7.00;99.90;;;;;;5070439;28;20225;-74
2024/02/13 07:58:59;;;;;;;6.63;2.50;;;7.00;99.90;;;;;;5051763;28;20216;-74
2024/02/13 08:01:26;;;;;;;6.18;2.65;;;7.10;99.90;;;;;;5051715;28;20587;-71
2024/02/13 08:03:52;;;;;;;3.90;2.40;;;7.10;99.90;;;;;;5052302;28;20184;-71
2024/02/13 08:06:19;;;;;;;3.45;1.80;;;7.20;99.90;;;;;;5052295;28;20608;-72
2024/02/13 08:08:49;;;;;;;2.90;1.70;;;7.30;99.90;;;;;;5051998;28;20195;-73
2024/02/13 08:11:16;;;;;;;4.45;1.55;;;7.40;99.90;;;;;;5069896;28;20184;-74
2024/02/13 08:13:43;;;;;;;2.38;1.73;;;7.50;99.90;;;;;;5070347;28;20727;-73
2024/02/13 08:16:13;;;;;;;3.72;1.60;;;7.60;99.90;;;;;;5052420;28;20176;-74
2024/02/13 08:18:40;;;;;;;5.75;1.58;;;7.60;99.90;;;;;;5037527;28;20177;-74
2024/02/13 08:21:06;;;;;;;3.38;1.60;;;7.80;99.90;;;;;;5070646;28;20565;-72
2024/02/13 08:23:33;;;;;;;6.13;1.58;;;7.80;99.90;;;;;;5070954;28;20177;-73
2024/02/13 08:25:59;;;;;;;5.28;1.98;;;7.90;99.90;;;;;;5035508;28;20243;-73
2024/02/13 08:28:25;;;;;;;4.60;1.88;;;8.00;99.90;;;;;;5037976;28;20191;-73
2024/02/13 08:30:53;;;;;;;2.17;1.57;;;8.10;99.90;;;;;;5053909;28;20173;-74
2024/02/13 08:33:19;;;;;;;6.07;1.70;;;8.30;99.90;;;;;;5043606;28;20271;-73
2024/02/13 08:35:46;;;;;;;3.17;1.65;;;8.40;99.90;;;;;;5059119;28;20563;-73
2024/02/13 08:38:12;;;;;;;2.72;1.52;;;8.50;99.90;;;;;;5046391;28;20176;-72
2024/02/13 08:40:38;;;;;;;2.67;1.30;;;8.60;99.90;;;;;;5065338;28;20258;-73
2024/02/13 08:43:04;;;;;;;2.90;1.30;;;8.70;99.90;;;;;;5052045;28;20591;-73
2024/02/13 08:45:30;;;;;;;3.17;1.40;;;8.80;99.90;;;;;;5069095;28;20250;-73
2024/02/13 08:47:56;;;;;;;4.47;1.40;;;8.90;99.90;;;;;;5044187;28;20168;-73
2024/02/13 08:50:22;;;;;;;3.50;1.67;;;8.90;99.90;;;;;;5041114;28;20196;-73
2024/02/13 08:52:48;;;;;;;2.40;1.30;;;9.00;99.90;;;;;;5064617;28;20169;-72
2024/02/13 08:55:14;;;;;;;2.72;1.02;;;9.00;99.90;;;;;;5058177;28;20571;-73
2024/02/13 08:57:40;;;;;;;3.15;1.52;;;9.00;99.90;;;;;;5032768;28;20183;-73
2024/02/13 09:00:10;;;;;;;7.80;2.57;;;9.10;99.90;;;;;;5045407;28;20684;-73
2024/02/13 09:02:36;;;;;;;2.67;0.95;;;9.20;99.90;;;;;;5046423;28;20645;-73
2024/02/13 09:05:04;;;;;;;5.63;1.13;;;9.30;99.90;;;;;;5050023;28;20177;-74
2024/02/13 09:07:30;;;;;;;2.38;0.90;;;9.70;99.90;;;;;;5034764;28;20166;-73
2024/02/13 09:09:56;;;;;;;3.70;1.00;;;10.30;99.90;;;;;;5070756;28;20204;-73
2024/02/13 09:12:23;;;;;;;3.90;0.93;;;11.10;99.90;;;;;;5054610;28;20180;-73
2024/02/13 09:14:49;;;;;;;2.30;0.80;;;12.00;99.90;;;;;;5069949;28;20231;-73
2024/02/13 09:17:15;;;;;;;1.43;0.80;;;13.00;99.90;;;;;;5068101;28;20686;-73
2024/02/13 09:19:42;;;;;;;3.83;1.20;;;14.00;99.90;;;;;;5069450;28;20204;-71
2024/02/13 09:22:09;;;;;;;4.27;1.10;;;15.00;99.90;;;;;;5062825;28;21020;-71
2024/02/13 09:24:36;;;;;;;2.50;0.90;;;16.00;99.90;;;;;;5053437;28;20594;-72
2024/02/13 09:27:03;;;;;;;2.33;1.00;;;16.90;99.90;;;;;;5053710;28;20630;-71
2024/02/13 09:29:29;;;;;;;2.80;0.97;;;17.80;99.90;;;;;;5070371;28;20660;-72
2024/02/13 09:31:55;;;;;;;3.00;1.03;;;18.70;99.90;;;;;;5049576;28;20579;-72
2024/02/13 09:34:20;;;;;;;4.00;2.00;;;19.50;99.90;;;;;;5052500;28;20656;-71
2024/02/13 09:36:46;;;;;;;2.23;0.90;;;20.30;99.90;;;;;;5054579;28;20180;-72
2024/02/13 09:39:12;;;;;;;3.33;1.03;;;21.00;99.90;;;;;;5054478;28;20563;-72
2024/02/13 09:41:40;;;;;;;1.77;0.73;;;21.60;99.90;;;;;;5072146;28;20168;-72
2024/02/13 09:44:07;;;;;;;3.13;1.00;;;22.20;99.90;;;;;;5054667;28;20214;-72
2024/02/13 09:46:36;;;;;;;3.33;1.37;;;22.60;99.90;;;;;;5053863;28;20654;-72
2024/02/13 09:49:04;;;;;;;3.30;1.20;;;23.00;99.90;;;;;;5069191;28;20913;-72
2024/02/13 09:51:33;;;;;;;2.33;0.77;;;23.50;99.90;;;;;;5071633;28;20681;-72
2024/02/13 09:54:02;;;;;;;2.67;0.80;;;23.80;99.90;;;;;;5054600;28;20583;-72
2024/02/13 09:56:28;;;;;;;3.67;1.33;;;24.20;99.90;;;;;;5072425;28;20585;-72
2024/02/13 09:58:54;;;;;;;2.63;0.80;;;24.50;99.90;;;;;;5053929;28;20641;-73
2024/02/13 10:01:20;;;;;;;2.87;0.80;;;24.80;99.90;;;;;;5053759;28;20629;-72
2024/02/13 10:03:47;;;;;;;4.13;0.90;;;25.10;99.90;;;;;;5071858;28;20580;-72
2024/02/13 10:06:13;;;;;;;3.63;1.00;;;25.40;99.90;;;;;;5054072;28;20237;-72
2024/02/13 10:08:39;;;;;;;1.87;0.80;;;25.50;99.90;;;;;;5052481;28;20630;-72
2024/02/13 10:11:12;;;;;;;1.50;0.60;;;25.70;99.90;;;;;;5066616;28;20598;-72
2024/02/13 10:13:39;;;;;;;1.80;0.70;;;25.80;99.90;;;;;;5069868;28;20642;-72
2024/02/13 10:16:05;;;;;;;2.37;0.80;;;25.90;99.90;;;;;;5071665;28;20629;-72
2024/02/13 10:18:33;;;;;;;1.97;0.80;;;25.90;99.90;;;;;;5071321;28;20594;-74
2024/02/13 10:21:04;;;;;;;3.50;0.90;;;25.80;99.90;;;;;;5071090;28;21129;-74
2024/02/13 10:23:29;;;;;;;2.67;0.80;;;25.60;99.90;;;;;;5054049;28;20675;-73
2024/02/13 10:25:55;;;;;;;5.43;0.90;;;25.60;99.90;;;;;;5052436;28;21198;-73
2024/02/13 10:28:24;;;;;;;1.50;0.60;;;25.50;99.90;;;;;;5049122;28;20183;-72
2024/02/13 10:30:52;;;;;;;2.73;0.70;;;25.30;99.90;;;;;;5071335;28;20522;-72
2024/02/13 10:33:19;;;;;;;2.63;0.70;;;25.20;99.90;;;;;;5059916;28;20585;-72
2024/02/13 10:35:52;;;;;;;2.33;0.70;;;25.10;99.90;;;;;;5052167;28;20632;-72
2024/02/13 10:38:23;;;;;;;2.87;0.60;;;24.90;99.90;;;;;;5071391;28;20608;-72
2024/02/13 10:40:54;;;;;;;2.13;0.60;;;24.90;99.90;;;;;;5044748;28;20597;-72
2024/02/13 10:43:21;;;;;;;2.43;0.80;;;24.80;99.90;;;;;;5071505;28;20577;-72
2024/02/13 10:45:52;;;;;;;4.70;0.90;;;24.60;99.90;;;;;;5071383;28;20590;-72
2024/02/13 10:48:50;;;;;;;1.63;0.80;;;24.50;99.90;;;;;;5067324;28;20586;-72
2024/02/13 10:51:17;;;;;;;3.10;1.13;;;24.30;99.90;;;;;;5032685;28;20593;-72
2024/02/13 10:53:49;;;;;;;4.83;0.77;;;24.30;99.90;;;;;;5057693;28;20585;-71
2024/02/13 10:56:16;;;;;;;2.30;0.73;;;24.20;98.30;;;;;;5016821;28;20638;-72
2024/02/13 10:58:46;;;;;;;2.00;0.63;;;24.00;99.90;;;;;;5052066;28;20596;-71
2024/02/13 11:01:15;;;;;;;1.90;0.60;;;23.80;98.20;;;;;;5044147;28;20577;-71
2024/02/13 11:03:42;;;;;;;3.30;0.67;;;23.70;98.80;;;;;;5053123;28;20590;-71
2024/02/13 11:06:10;;;;;;;3.03;0.60;;;23.60;98.30;;;;;;5036037;28;20611;-74
2024/02/13 11:08:36;;;;;;;2.37;0.60;;;23.50;98.90;;;;;;5070742;28;20647;-71
2024/02/13 11:11:12;;;;;;;3.97;0.70;;;23.50;98.70;;;;;;5035761;28;20694;-71
2024/02/13 11:13:39;;;;;;;4.10;0.70;;;23.40;98.80;;;;;;5025540;28;20587;-72
2024/02/13 11:16:05;;;;;;;2.80;0.73;;;23.30;97.80;;;;;;5047875;28;20628;-72
2024/02/13 11:18:34;;;;;;;2.07;0.60;;;23.20;98.10;;;;;;5048881;28;20583;-72
2024/02/13 11:21:05;;;;;;;2.43;0.60;;;23.00;97.40;;;;;;5070322;28;20578;-72
2024/02/13 11:23:33;;;;;;;1.67;0.60;;;22.70;97.10;;;;;;5062477;28;20582;-71
2024/02/13 11:26:00;;;;;;;1.77;0.60;;;22.60;96.70;;;;;;5052031;28;20590;-72
2024/02/13 11:28:53;;;;;;;2.13;0.70;;;22.30;95.90;;;;;;5070166;28;20582;-71
2024/02/13 11:31:19;;;;;;;2.30;0.90;;;21.80;93.90;;;;;;5049102;28;20583;-71
2024/02/13 11:34:22;;;;;;;2.43;0.60;;;21.40;94.60;;;;;;5046568;28;20591;-71
2024/02/13 11:36:51;;;;;;;3.30;0.80;;;20.80;92.50;;;;;;5004273;28;20291;-71
2024/02/13 11:39:17;;;;;;;1.67;0.60;;;20.20;93.20;;;;;;5041487;28;20649;-73
2024/02/13 11:41:43;;;;;;;3.40;0.70;;;19.70;93.20;;;;;;5064661;28;20609;-74
2024/02/13 11:44:11;;;;;;;2.90;0.70;;;19.30;93.00;;;;;;5053073;28;20611;-74
2024/02/13 11:46:50;;;;;;;4.13;0.70;;;18.80;92.80;;;;;;5052011;28;20218;-73
2024/02/13 11:49:16;;;;;;;2.37;0.70;;;18.50;92.70;;;;;;5070144;28;20610;-74
2024/02/13 11:51:42;;;;;;;3.67;0.63;;;18.10;93.60;;;;;;5033840;28;20602;-74
2024/02/13 11:54:08;;;;;;;1.70;0.60;;;17.90;93.80;;;;;;5035694;28;20644;-73
2024/02/13 11:56:35;;;;;;;1.80;0.50;;;17.60;93.90;;;;;;5069990;28;20634;-74
2024/02/13 11:59:07;;;;;;;1.57;0.60;;;17.40;93.40;;;;;;5066074;28;20641;-73
2024/02/13 12:01:37;;;;;;;1.83;0.53;;;17.20;93.30;;;;;;5051368;28;20605;-74
2024/02/13 12:04:12;;;;;;;1.93;0.60;;;17.00;94.10;;;;;;5052121;28;20590;-74
2024/02/13 12:06:43;;;;;;;1.63;0.60;;;16.80;93.50;;;;;;5052134;28;20647;-74
2024/02/13 12:09:09;;;;;;;1.40;0.50;;;16.70;94.00;;;;;;5069981;28;20709;-73
2024/02/13 12:11:36;;;;;;;1.80;0.60;;;16.50;94.10;;;;;;5069523;28;20690;-74
2024/02/13 12:14:03;;;;;;;1.83;0.60;;;16.40;94.60;;;;;;5070319;28;20176;-74
2024/02/13 12:16:32;;;;;;;3.20;0.70;;;16.30;94.80;;;;;;5051822;28;20696;-74
2024/02/13 12:18:59;;;;;;;1.20;0.50;;;16.30;94.80;;;;;;5051702;28;21028;-73
2024/02/13 12:21:26;;;;;;;3.53;0.73;;;16.20;94.80;;;;;;5069253;28;20582;-74
2024/02/13 12:23:56;;;;;;;5.07;1.20;;;16.10;94.80;;;;;;5069690;28;20632;-73
2024/02/13 12:26:22;;;;;;;2.30;0.70;;;16.00;95.00;;;;;;5065815;28;20587;-73
2024/02/13 12:28:58;;;;;;;2.20;0.63;;;16.00;95.00;;;;;;5051981;28;20634;-73
2024/02/13 12:31:27;;;;;;;3.03;0.60;;;15.90;94.00;;;;;;5069420;28;20584;-73
2024/02/13 12:34:04;;;;;;;1.63;0.60;;;15.80;94.90;;;;;;5045986;28;20648;-74
2024/02/13 12:36:31;;;;;;;1.43;0.53;;;15.70;93.70;;;;;;5051795;28;20642;-73
2024/02/13 12:39:13;;;;;;;1.70;0.67;;;15.70;95.00;;;;;;5069539;28;20622;-74
2024/02/13 12:41:39;;;;;;;4.60;0.60;;;15.70;94.10;;;;;;5051290;28;20694;-76
2024/02/13 12:44:05;;;;;;;2.70;0.70;;;15.60;94.70;;;;;;5071097;28;21186;-74
2024/02/13 12:46:36;;;;;;;1.73;0.70;;;15.50;94.50;;;;;;5073535;28;20578;-73
2024/02/13 12:49:06;;;;;;;3.47;0.60;;;15.50;94.40;;;;;;5055721;28;20685;-76
2024/02/13 12:51:35;;;;;;;2.43;0.60;;;15.40;93.00;;;;;;5056026;28;20591;-73
2024/02/13 12:54:06;;;;;;;2.10;0.50;;;15.20;93.00;;;;;;5065132;28;20593;-74
2024/02/13 12:56:37;;;;;;;2.40;0.80;;;15.00;93.20;;;;;;5038999;28;20994;-73